This is the latest recevied weather packets stored in our database for station/object HS8AFA. If no packets are shown the sender has not sent any weather packets the latest 10 day(s).
| Time | Temp. | Humidity | Pressure | Rain* | Wind** | Luminosity | Snow |
|---|---|---|---|---|---|---|---|
| 1777936237 | 27.78° C | 100% | 1010.3 hPa | 0 mm | - | - | - |
| 1777933216 | 27.78° C | 100% | 1009.7 hPa | 0 mm | - | - | - |
| 1777924817 | 28.33° C | 100% | 1009.9 hPa | 0 mm | - | - | - |
| 1777923618 | 28.33° C | 100% | 1010 hPa | 0 mm | - | - | - |
| 1777919440 | 28.33° C | 100% | 1010.8 hPa | 0 mm | - | - | - |
| 1777917617 | 28.89° C | 100% | 1011 hPa | 0 mm | - | - | - |
| 1777915820 | 28.89° C | 100% | 1011.6 hPa | 0 mm | - | - | - |
| 1777914016 | 28.89° C | 100% | 1011.8 hPa | 0 mm | - | - | - |
| 1777908640 | 29.44° C | 100% | 1011.5 hPa | 0 mm | - | - | - |
| 1777900819 | 31.11° C | 100% | 1009.7 hPa | 0 mm | - | - | - |
| 1777896621 | 31.67° C | 100% | 1009.3 hPa | 0 mm | - | - | - |
| 1777890619 | 32.78° C | 100% | 1008.5 hPa | 0 mm | - | - | - |
| 1777889421 | 32.78° C | 100% | 1008.1 hPa | 0 mm | - | - | - |
| 1777887018 | 32.78° C | 100% | 1007.4 hPa | 0 mm | - | - | - |
| 1777885820 | 33.33° C | 100% | 1007.6 hPa | 0 mm | - | - | - |
| 1777882240 | 33.33° C | 100% | 1008.6 hPa | 0 mm | - | - | - |
| 1777881017 | 33.33° C | 100% | 1008.6 hPa | 0 mm | - | - | - |
| 1777879220 | 33.33° C | 100% | 1009.2 hPa | 0 mm | - | - | - |
| 1777878016 | 33.33° C | 100% | 1009.8 hPa | 0 mm | - | - | - |
| 1777876818 | 33.33° C | 100% | 1010.4 hPa | 0 mm | - | - | - |
| 1777875620 | 33.89° C | 100% | 1010.9 hPa | 0 mm | - | - | - |
| 1777873818 | 35° C | 100% | 1011 hPa | 0 mm | - | - | - |
| 1777872618 | 33.89° C | 100% | 1011.2 hPa | 0 mm | - | - | - |
| 1777870217 | 34.44° C | 100% | 1011.7 hPa | 0 mm | - | - | - |
| 1777864819 | 32.78° C | 100% | 1012.6 hPa | 0 mm | - | - | - |
* Rain latest hour (hover to see other rain measurements)
** Current wind speed in m/s (hover to see current wind gust speed)